Terminal Aerodrome Forecast
Issued by NWS

Home | Current Version | Previous Version | Text Only | Print | Product List | Glossary Off
Versions: 1 2 3 4 5 6 7 8 9 10 11 12 13 14 15 16 17 18 19 20 21

000
FTUS43 KABR 312100 AAA
TAFATY
TAF AMD
KATY 312104Z 3121/0118 27011G20KT P6SM SKC
     FM010800 18018KT P6SM BKN150=

USA.gov is the U.S. government's official web portal to all federal, state and local government web resources and services.